createdAt,value
2023-05-23T00:00:21.509Z,79.91
2023-05-23T00:03:23.045Z,80.04
2023-05-23T00:14:56.761Z,80.43
2023-05-23T00:17:29.460Z,80.54
2023-05-23T00:23:50.648Z,80.89
2023-05-23T00:27:24.143Z,80.83
2023-05-23T00:29:56.830Z,81.06
2023-05-23T00:36:23.380Z,81.21
2023-05-23T00:38:55.875Z,81.12
2023-05-23T00:41:37.980Z,81.35
2023-05-23T00:44:55.865Z,81.59
2023-05-23T00:48:14.367Z,81.31
2023-05-23T00:50:53.792Z,81.43
2023-05-23T00:53:26.080Z,81.46
2023-05-23T00:56:05.172Z,81.43
2023-05-23T00:58:37.281Z,81.60
2023-05-23T01:01:16.354Z,81.69
2023-05-23T01:03:48.627Z,81.81
2023-05-23T01:06:21.228Z,81.96
2023-05-23T01:30:50.808Z,82.40
2023-05-23T01:34:38.783Z,82.60
2023-05-23T01:37:20.098Z,82.78
2023-05-23T01:40:50.337Z,82.89
2023-05-23T01:50:57.885Z,83.10
2023-05-23T01:53:32.416Z,83.03
2023-05-23T01:56:05.391Z,83.21
2023-05-23T01:58:37.529Z,83.14
2023-05-23T02:01:10.132Z,83.28
2023-05-23T02:04:08.304Z,82.98
2023-05-23T02:06:47.611Z,82.98
2023-05-23T02:09:19.712Z,83.03
2023-05-23T02:25:09.163Z,83.83
2023-05-23T02:27:41.633Z,83.76
2023-05-23T02:30:20.792Z,83.81
2023-05-23T02:32:54.878Z,83.68
2023-05-23T02:35:33.677Z,83.93
2023-05-23T02:38:06.183Z,84.15
2023-05-23T02:41:33.720Z,83.96
2023-05-23T02:44:05.803Z,84.19
2023-05-23T02:50:20.665Z,84.12
2023-05-23T02:52:52.688Z,84.21
2023-05-23T02:58:58.842Z,84.30
2023-05-23T03:05:06.328Z,84.67
2023-05-23T03:07:44.745Z,84.94
2023-05-23T03:10:16.982Z,84.85
2023-05-23T03:13:24.024Z,84.96
2023-05-23T03:15:56.152Z,84.87
2023-05-23T03:23:00.866Z,85.23
2023-05-23T03:33:54.535Z,85.63
2023-05-23T03:36:28.527Z,85.63
2023-05-23T03:39:00.808Z,85.83
2023-05-23T03:44:56.237Z,86.26
2023-05-23T03:52:01.206Z,86.54
2023-05-23T03:54:48.807Z,86.84
2023-05-23T03:57:31.019Z,86.97
2023-05-23T04:00:12.773Z,87.22
2023-05-23T04:03:32.782Z,87.51
2023-05-23T04:24:26.719Z,89.27
2023-05-23T04:27:00.846Z,89.44
2023-05-23T04:29:36.049Z,89.62
2023-05-23T04:32:53.834Z,90.00
2023-05-23T04:35:26.887Z,90.19
2023-05-23T04:37:58.951Z,90.55
2023-05-23T04:40:34.244Z,90.65
2023-05-23T04:43:46.210Z,91.01
2023-05-23T04:46:42.924Z,91.03
2023-05-23T04:54:13.715Z,91.90
2023-05-23T04:56:45.930Z,91.94
2023-05-23T04:59:18.738Z,92.07
2023-05-23T05:01:50.782Z,92.06
2023-05-23T05:04:43.173Z,92.10
2023-05-23T05:07:16.247Z,92.28
2023-05-23T05:13:41.932Z,92.06
2023-05-23T05:16:14.088Z,91.86
2023-05-23T05:19:07.030Z,91.74
2023-05-23T05:21:39.234Z,91.14
2023-05-23T05:27:58.440Z,90.90
2023-05-23T05:34:18.532Z,90.57
2023-05-23T05:36:50.766Z,90.09
2023-05-23T05:40:07.363Z,89.18
2023-05-23T05:42:41.289Z,89.41
2023-05-23T05:45:14.988Z,89.19
2023-05-23T05:47:48.110Z,88.69
2023-05-23T05:50:52.532Z,88.21
2023-05-23T05:57:56.999Z,86.30
2023-05-23T06:00:30.841Z,86.46
2023-05-23T06:03:23.551Z,86.03
2023-05-23T06:06:00.224Z,86.10
2023-05-23T06:17:38.145Z,83.42
2023-05-23T06:20:11.570Z,83.28
2023-05-23T06:23:06.468Z,81.38
2023-05-23T06:25:38.642Z,81.39
2023-05-23T06:28:11.519Z,82.11
2023-05-23T06:30:46.406Z,81.39
2023-05-23T06:34:45.786Z,80.16
2023-05-23T06:37:18.121Z,80.21
2023-05-23T06:40:51.718Z,80.66
2023-05-23T06:44:26.889Z,79.31
2023-05-23T06:46:59.589Z,78.08
2023-05-23T06:49:41.335Z,77.26
2023-05-23T06:52:13.793Z,74.60
2023-05-23T06:54:54.236Z,74.88
2023-05-23T06:57:41.088Z,72.33
2023-05-23T07:04:04.678Z,72.68
2023-05-23T07:06:39.622Z,71.58
2023-05-23T07:09:19.882Z,68.14
2023-05-23T07:11:51.912Z,68.65
2023-05-23T07:14:48.925Z,69.76
2023-05-23T07:17:21.429Z,68.86
2023-05-23T07:23:28.194Z,68.42
2023-05-23T07:26:43.384Z,65.23
2023-05-23T07:29:15.952Z,64.78
2023-05-23T07:39:44.970Z,65.58
2023-05-23T07:51:11.986Z,60.50
2023-05-23T07:54:41.840Z,59.35
2023-05-23T07:57:11.608Z,58.90
2023-05-23T08:00:14.341Z,59.39
2023-05-23T08:07:21.406Z,55.18
2023-05-23T08:14:14.962Z,55.28
2023-05-23T08:17:13.422Z,53.69
2023-05-23T08:27:39.064Z,50.44
2023-05-23T08:30:37.329Z,50.50
2023-05-23T08:34:10.436Z,49.72
2023-05-23T08:36:45.324Z,49.22
2023-05-23T08:43:11.833Z,47.82
2023-05-23T08:45:40.996Z,46.84
2023-05-23T08:48:50.966Z,45.79
2023-05-23T08:51:23.257Z,45.34
2023-05-23T08:57:39.302Z,46.93
2023-05-23T09:00:43.961Z,47.13
2023-05-23T09:08:07.583Z,43.68
2023-05-23T09:10:37.352Z,44.44
2023-05-23T09:17:39.733Z,43.11
2023-05-23T09:20:17.665Z,44.62
2023-05-23T09:23:00.066Z,43.08
2023-05-23T09:25:51.791Z,44.03
2023-05-23T09:29:11.597Z,43.29
2023-05-23T09:39:32.837Z,42.93
2023-05-23T09:42:05.333Z,42.61
2023-05-23T09:45:32.853Z,42.38
2023-05-23T09:48:06.438Z,40.47
2023-05-23T09:50:52.626Z,41.21
2023-05-23T09:53:25.833Z,41.78
2023-05-23T09:56:00.196Z,40.37
2023-05-23T09:59:02.417Z,41.61
2023-05-23T10:01:35.177Z,41.91
2023-05-23T10:15:14.625Z,39.32
2023-05-23T10:26:42.216Z,39.89
2023-05-23T10:29:14.349Z,39.99
2023-05-23T10:32:16.579Z,40.08
2023-05-23T10:47:07.676Z,38.86
2023-05-23T10:56:41.961Z,38.36
2023-05-23T11:03:19.917Z,38.31
2023-05-23T11:05:56.897Z,38.60
2023-05-23T11:14:00.044Z,37.72
2023-05-23T11:16:30.588Z,38.19
2023-05-23T11:19:25.715Z,37.16
2023-05-23T11:21:57.499Z,37.45
2023-05-23T11:24:50.877Z,37.01
2023-05-23T11:27:27.139Z,37.23
2023-05-23T11:30:06.566Z,37.21
2023-05-23T11:32:38.038Z,35.88
2023-05-23T11:35:11.315Z,36.77
2023-05-23T11:37:40.670Z,35.39
2023-05-23T11:40:27.852Z,36.34
2023-05-23T11:42:57.259Z,36.47
2023-05-23T11:45:27.242Z,35.58
2023-05-23T11:47:56.083Z,36.48
2023-05-23T11:50:25.050Z,35.41
2023-05-23T11:52:55.657Z,35.86
2023-05-23T11:55:24.669Z,36.17
2023-05-23T11:57:57.151Z,35.99
2023-05-23T12:00:26.116Z,35.96
2023-05-23T12:02:55.046Z,36.51
2023-05-23T12:05:24.558Z,36.44
2023-05-23T12:07:53.428Z,36.38
2023-05-23T12:10:28.101Z,36.48
2023-05-23T12:12:57.500Z,37.17
2023-05-23T12:15:27.442Z,37.26
2023-05-23T12:17:57.111Z,36.65
2023-05-23T12:20:31.848Z,36.77
2023-05-23T12:23:03.864Z,35.72
2023-05-23T12:25:40.254Z,36.44
2023-05-23T12:28:13.165Z,36.05
2023-05-23T12:30:45.224Z,35.92
2023-05-23T12:33:14.189Z,35.99
2023-05-23T12:35:44.968Z,35.97
2023-05-23T12:38:17.154Z,36.08
2023-05-23T12:40:45.938Z,36.08
2023-05-23T12:43:16.759Z,36.37
2023-05-23T12:45:45.782Z,36.70
2023-05-23T12:48:14.618Z,36.95
2023-05-23T12:50:43.597Z,36.82
2023-05-23T12:53:12.476Z,36.93
2023-05-23T12:55:43.990Z,36.58
2023-05-23T12:58:49.387Z,36.77
2023-05-23T13:01:20.320Z,37.18
2023-05-23T13:03:49.472Z,37.26
2023-05-23T13:06:18.429Z,37.76
2023-05-23T13:08:48.281Z,37.96
2023-05-23T13:11:17.670Z,37.79
2023-05-23T13:13:47.300Z,38.15
2023-05-23T13:16:16.352Z,38.47
2023-05-23T13:18:45.424Z,39.28
2023-05-23T13:21:14.361Z,40.27
2023-05-23T13:23:43.378Z,41.80
2023-05-23T13:26:13.978Z,41.97
2023-05-23T13:28:42.949Z,42.59
2023-05-23T13:31:12.076Z,43.41
2023-05-23T13:33:41.433Z,43.96
2023-05-23T13:36:10.272Z,44.00
2023-05-23T13:38:39.116Z,45.00
2023-05-23T13:41:08.329Z,45.23
2023-05-23T13:43:37.325Z,45.74
2023-05-23T13:46:06.180Z,46.20
2023-05-23T13:48:35.188Z,46.87
2023-05-23T13:51:04.340Z,46.97
2023-05-23T13:53:33.561Z,47.56
2023-05-23T13:56:03.214Z,47.97
2023-05-23T13:58:32.939Z,47.99
2023-05-23T14:01:02.080Z,48.58
2023-05-23T14:03:30.927Z,48.86
2023-05-23T14:05:59.707Z,49.10
2023-05-23T14:08:28.679Z,49.28
2023-05-23T14:10:59.793Z,49.80
2023-05-23T14:13:28.632Z,49.91
2023-05-23T14:15:57.877Z,50.22
2023-05-23T14:18:27.000Z,50.37
2023-05-23T14:20:56.385Z,50.86
2023-05-23T14:23:25.492Z,50.88
2023-05-23T14:25:54.538Z,51.59
2023-05-23T14:28:23.771Z,51.56
2023-05-23T14:30:52.918Z,51.64
2023-05-23T14:33:22.017Z,52.13
2023-05-23T14:35:51.020Z,52.07
2023-05-23T14:38:23.342Z,52.80
2023-05-23T14:40:54.183Z,53.38
2023-05-23T14:43:23.347Z,52.91
2023-05-23T14:45:52.565Z,53.03
2023-05-23T14:48:22.128Z,53.40
2023-05-23T14:50:51.248Z,53.61
2023-05-23T14:53:21.910Z,54.04
2023-05-23T14:55:51.008Z,53.89
2023-05-23T14:58:21.155Z,53.28
2023-05-23T15:00:50.227Z,53.90
2023-05-23T15:03:19.587Z,54.10
2023-05-23T15:05:49.522Z,54.04
2023-05-23T15:08:19.273Z,54.10
2023-05-23T15:10:50.997Z,53.97
2023-05-23T15:13:20.152Z,53.82
2023-05-23T15:15:49.187Z,54.02
2023-05-23T15:18:31.734Z,53.78
2023-05-23T15:21:11.840Z,53.91
2023-05-23T15:23:43.371Z,54.32
2023-05-23T15:26:13.688Z,54.70
2023-05-23T15:28:42.902Z,54.41
2023-05-23T15:31:12.084Z,54.50
2023-05-23T15:33:41.147Z,54.57
2023-05-23T15:36:12.548Z,54.63
2023-05-23T15:38:41.571Z,54.75
2023-05-23T15:41:11.023Z,54.90
2023-05-23T15:43:40.193Z,54.97
2023-05-23T15:46:09.409Z,54.72
2023-05-23T15:48:38.713Z,55.01
2023-05-23T15:51:07.710Z,55.17
2023-05-23T15:53:47.861Z,55.22
2023-05-23T15:56:26.060Z,55.50
2023-05-23T15:58:55.421Z,56.72
2023-05-23T16:01:24.821Z,57.33
2023-05-23T16:03:54.104Z,57.88
2023-05-23T16:06:24.739Z,58.38
2023-05-23T16:08:54.123Z,58.64
2023-05-23T16:11:23.586Z,58.72
2023-05-23T16:13:53.053Z,59.05
2023-05-23T16:16:22.207Z,58.90
2023-05-23T16:18:54.416Z,96.92
2023-05-23T16:21:23.451Z,84.50
2023-05-23T16:23:52.699Z,81.68
2023-05-23T16:26:21.725Z,82.81
2023-05-23T16:28:50.641Z,83.59
2023-05-23T16:31:25.210Z,84.76
2023-05-23T16:33:54.662Z,85.29
2023-05-23T16:36:23.804Z,85.17
2023-05-23T16:38:54.706Z,85.34
2023-05-23T16:41:27.814Z,81.45
2023-05-23T16:43:56.989Z,78.98
2023-05-23T16:46:26.454Z,79.20
2023-05-23T16:48:55.885Z,78.92
2023-05-23T16:51:25.233Z,77.80
2023-05-23T16:53:54.215Z,78.33
2023-05-23T16:56:23.516Z,78.07
2023-05-23T16:59:03.229Z,77.90
2023-05-23T17:01:35.184Z,77.54
2023-05-23T17:04:04.678Z,78.14
2023-05-23T17:06:33.988Z,78.02
2023-05-23T17:09:03.371Z,77.70
2023-05-23T17:11:32.312Z,77.93
2023-05-23T17:14:01.545Z,77.77
2023-05-23T17:16:33.259Z,77.35
2023-05-23T17:19:02.744Z,77.48
2023-05-23T17:21:32.332Z,76.28
2023-05-23T17:24:03.564Z,76.07
2023-05-23T17:26:33.964Z,75.99
2023-05-23T17:29:03.244Z,75.66
2023-05-23T17:31:32.525Z,76.22
2023-05-23T17:34:01.931Z,75.99
2023-05-23T17:36:32.100Z,76.34
2023-05-23T17:39:04.411Z,76.14
2023-05-23T17:41:33.763Z,76.26
2023-05-23T17:44:03.644Z,75.93
2023-05-23T17:46:32.898Z,75.96
2023-05-23T17:49:02.198Z,76.27
2023-05-23T17:51:31.767Z,76.53
2023-05-23T17:54:02.368Z,76.38
2023-05-23T17:56:31.628Z,76.42
2023-05-23T17:59:04.928Z,76.64
2023-05-23T18:01:34.131Z,76.70
2023-05-23T18:04:03.626Z,76.88
2023-05-23T18:06:33.336Z,76.97
2023-05-23T18:09:02.678Z,77.08
2023-05-23T18:11:31.652Z,77.52
2023-05-23T18:14:02.300Z,77.60
2023-05-23T18:16:31.731Z,77.65
2023-05-23T18:19:01.288Z,77.64
2023-05-23T18:21:30.997Z,77.73
2023-05-23T18:24:00.708Z,78.30
2023-05-23T18:26:30.368Z,78.27
2023-05-23T18:29:00.787Z,78.33
2023-05-23T18:31:32.317Z,78.42
2023-05-23T18:34:01.449Z,78.50
2023-05-23T18:36:31.759Z,78.30
2023-05-23T18:39:00.631Z,78.38
2023-05-23T18:41:29.489Z,78.56
2023-05-23T18:44:00.473Z,78.79
2023-05-23T18:46:30.284Z,78.94
2023-05-23T18:48:59.659Z,79.21
2023-05-23T18:51:29.108Z,79.23
2023-05-23T18:53:58.742Z,79.24
2023-05-23T18:56:27.729Z,79.51
2023-05-23T18:58:56.892Z,79.42
2023-05-23T19:01:27.795Z,79.94
2023-05-23T19:03:57.927Z,79.80
2023-05-23T19:06:28.932Z,79.73
2023-05-23T19:08:58.035Z,79.65
2023-05-23T19:11:27.493Z,79.68
2023-05-23T19:13:56.998Z,79.41
2023-05-23T19:16:29.440Z,79.66
2023-05-23T19:18:58.832Z,79.74
2023-05-23T19:21:29.147Z,80.04
2023-05-23T19:23:59.260Z,80.24
2023-05-23T19:26:31.556Z,80.29
2023-05-23T19:29:06.161Z,80.38
2023-05-23T19:31:37.374Z,80.44
2023-05-23T19:34:07.619Z,80.40
2023-05-23T19:36:37.451Z,80.63
2023-05-23T19:39:06.795Z,80.70
2023-05-23T19:41:38.346Z,80.80
2023-05-23T19:44:07.650Z,81.23
2023-05-23T19:49:47.239Z,81.61
2023-05-23T19:52:22.958Z,81.89
2023-05-23T19:54:58.385Z,82.05
2023-05-23T19:57:31.251Z,82.10
2023-05-23T20:00:03.754Z,82.28
2023-05-23T20:02:37.654Z,82.42
2023-05-23T20:05:12.130Z,82.58
2023-05-23T20:07:44.729Z,82.73
2023-05-23T20:10:17.728Z,83.07
2023-05-23T20:12:50.151Z,83.13
2023-05-23T20:15:38.164Z,83.25
2023-05-23T20:18:12.360Z,83.58
2023-05-23T20:20:47.409Z,83.64
2023-05-23T20:23:21.193Z,83.82
2023-05-23T20:25:54.275Z,84.10
2023-05-23T20:28:27.762Z,84.50
2023-05-23T20:31:03.366Z,84.54
2023-05-23T20:33:39.239Z,84.82
2023-05-23T20:36:12.805Z,84.92
2023-05-23T20:38:47.985Z,85.28
2023-05-23T20:41:29.513Z,85.18
2023-05-23T20:44:02.196Z,85.52
2023-05-23T20:46:36.908Z,85.55
2023-05-23T20:49:17.835Z,85.60
2023-05-23T20:51:50.627Z,86.01
2023-05-23T20:54:24.515Z,85.88
2023-05-23T20:56:56.654Z,86.11
2023-05-23T20:59:30.506Z,86.27
2023-05-23T21:02:02.815Z,86.23
2023-05-23T21:04:35.274Z,86.52
2023-05-23T21:07:07.723Z,86.70
2023-05-23T21:09:39.876Z,86.85
2023-05-23T21:12:14.738Z,86.96
2023-05-23T21:17:54.151Z,87.13
2023-05-23T21:20:26.229Z,87.08
2023-05-23T21:22:58.644Z,86.99
2023-05-23T21:25:30.877Z,87.29
2023-05-23T21:28:02.982Z,87.38
2023-05-23T21:30:35.214Z,87.31
2023-05-23T21:33:07.510Z,87.41
2023-05-23T21:35:39.657Z,87.69
2023-05-23T21:38:11.900Z,87.70
2023-05-23T21:40:44.378Z,87.92
2023-05-23T21:43:16.819Z,88.22
2023-05-23T21:45:48.938Z,88.33
2023-05-23T21:48:21.106Z,88.41
2023-05-23T21:50:53.195Z,88.68
2023-05-23T21:53:25.300Z,88.82
2023-05-23T21:55:57.476Z,88.92
2023-05-23T21:58:29.666Z,89.00
2023-05-23T22:01:02.240Z,89.01
2023-05-23T22:03:34.730Z,89.11
2023-05-23T22:06:07.863Z,89.35
2023-05-23T22:08:42.211Z,89.51
2023-05-23T22:11:14.375Z,89.71
2023-05-23T22:13:46.700Z,89.75
2023-05-23T22:16:18.965Z,89.98
2023-05-23T22:18:52.127Z,90.14
2023-05-23T22:21:24.321Z,90.10
2023-05-23T22:23:57.811Z,90.46
2023-05-23T22:26:29.883Z,90.52
2023-05-23T22:29:02.309Z,90.73
2023-05-23T22:31:35.959Z,90.72
2023-05-23T22:34:08.522Z,91.03
2023-05-23T22:36:40.515Z,91.32
2023-05-23T22:39:13.914Z,91.46
2023-05-23T22:41:46.029Z,91.63
2023-05-23T22:44:18.345Z,91.78
2023-05-23T22:46:52.270Z,91.99
2023-05-23T22:49:26.570Z,92.12
2023-05-23T22:51:59.370Z,92.18
2023-05-23T22:54:31.453Z,92.22
2023-05-23T22:57:03.614Z,92.40
2023-05-23T22:59:35.771Z,92.33
2023-05-23T23:02:08.149Z,92.17
2023-05-23T23:04:41.934Z,92.33
2023-05-23T23:07:13.976Z,92.33
2023-05-23T23:09:46.201Z,92.62
2023-05-23T23:12:18.423Z,92.68
2023-05-23T23:14:50.799Z,92.79
2023-05-23T23:17:22.918Z,92.81
2023-05-23T23:19:55.053Z,92.92
2023-05-23T23:22:27.315Z,93.05
2023-05-23T23:25:00.733Z,93.10
2023-05-23T23:27:33.150Z,93.08
2023-05-23T23:30:05.450Z,93.23
2023-05-23T23:32:37.592Z,93.27
2023-05-23T23:35:10.549Z,93.23
2023-05-23T23:37:42.708Z,93.46
2023-05-23T23:40:18.818Z,93.55
2023-05-23T23:42:50.986Z,93.58
2023-05-23T23:45:23.596Z,93.50
2023-05-23T23:47:56.644Z,93.59
2023-05-23T23:50:28.824Z,93.71
2023-05-23T23:53:01.414Z,93.44
2023-05-23T23:55:33.550Z,93.83
2023-05-23T23:58:05.605Z,93.80
